createdAt,value
2022-11-12T00:00:50.383Z,4.60
2022-11-12T00:03:51.991Z,4.35
2022-11-12T00:06:53.565Z,4.00
2022-11-12T00:09:55.162Z,4.47
2022-11-12T00:12:56.688Z,3.75
2022-11-12T00:15:58.228Z,4.68
2022-11-12T00:18:59.786Z,4.45
2022-11-12T00:22:01.296Z,4.13
2022-11-12T00:25:03.940Z,4.70
2022-11-12T00:28:08.852Z,4.85
2022-11-12T00:31:11.839Z,5.10
2022-11-12T00:34:13.474Z,4.55
2022-11-12T00:37:15.003Z,5.20
2022-11-12T00:40:16.628Z,4.10
2022-11-12T00:43:18.301Z,4.75
2022-11-12T00:46:19.880Z,5.30
2022-11-12T00:49:21.804Z,6.32
2022-11-12T00:52:23.368Z,7.20
2022-11-12T00:55:24.945Z,8.13
2022-11-12T00:58:29.093Z,7.78
2022-11-12T01:01:30.658Z,7.45
2022-11-12T01:04:32.382Z,7.13
2022-11-12T01:07:34.875Z,6.85
2022-11-12T01:10:36.662Z,7.13
2022-11-12T01:13:43.986Z,6.53
2022-11-12T01:16:46.319Z,6.85
2022-11-12T01:19:47.869Z,6.80
2022-11-12T01:22:49.449Z,6.18
2022-11-12T01:25:51.016Z,6.07
2022-11-12T01:28:53.144Z,5.72
2022-11-12T01:31:54.765Z,6.22
2022-11-12T01:34:56.326Z,5.82
2022-11-12T01:37:57.922Z,5.40
2022-11-12T01:40:59.441Z,7.30
2022-11-12T01:44:20.319Z,7.90
2022-11-12T01:50:33.808Z,6.32
2022-11-12T01:53:40.457Z,6.82
2022-11-12T01:56:42.757Z,6.72
2022-11-12T01:59:46.553Z,6.07
2022-11-12T02:02:55.019Z,5.70
2022-11-12T02:06:01.513Z,5.32
2022-11-12T02:09:03.744Z,4.90
2022-11-12T02:12:06.059Z,4.88
2022-11-12T02:15:08.000Z,4.50
2022-11-12T02:18:09.571Z,4.70
2022-11-12T02:21:11.205Z,4.97
2022-11-12T02:24:12.698Z,4.78
2022-11-12T02:27:14.404Z,4.60
2022-11-12T02:30:16.094Z,4.75
2022-11-12T02:33:17.616Z,4.60
2022-11-12T02:36:19.283Z,4.57
2022-11-12T02:39:20.866Z,4.78
2022-11-12T02:42:22.416Z,4.90
2022-11-12T02:45:24.050Z,4.88
2022-11-12T02:48:25.834Z,5.72
2022-11-12T02:51:27.542Z,5.10
2022-11-12T02:54:29.073Z,5.82
2022-11-12T02:57:30.877Z,5.10
2022-11-12T03:00:32.430Z,4.90
2022-11-12T03:03:33.934Z,5.32
2022-11-12T03:06:35.514Z,4.90
2022-11-12T03:09:37.124Z,4.95
2022-11-12T03:12:38.732Z,5.22
2022-11-12T03:15:40.251Z,5.05
2022-11-12T03:18:41.907Z,4.40
2022-11-12T03:21:43.453Z,4.50
2022-11-12T03:24:44.999Z,4.70
2022-11-12T03:27:46.554Z,4.85
2022-11-12T03:30:48.199Z,4.50
2022-11-12T03:33:49.718Z,4.47
2022-11-12T03:36:51.281Z,4.40
2022-11-12T03:39:52.786Z,4.28
2022-11-12T03:42:54.899Z,4.03
2022-11-12T03:45:56.412Z,4.18
2022-11-12T03:48:59.185Z,4.15
2022-11-12T03:52:00.708Z,4.10
2022-11-12T03:55:02.235Z,3.80
2022-11-12T03:58:03.903Z,4.32
2022-11-12T04:01:05.547Z,3.90
2022-11-12T04:04:07.111Z,4.50
2022-11-12T04:07:27.545Z,4.43
2022-11-12T04:14:42.140Z,4.40
2022-11-12T04:18:02.167Z,4.22
2022-11-12T04:21:22.546Z,4.10
2022-11-12T04:24:51.072Z,4.38
2022-11-12T04:27:52.605Z,3.97
2022-11-12T04:30:54.162Z,4.63
2022-11-12T04:33:55.698Z,4.30
2022-11-12T04:36:57.238Z,4.93
2022-11-12T04:40:18.733Z,4.50
2022-11-12T04:43:38.963Z,4.75
2022-11-12T04:46:40.523Z,4.90
2022-11-12T04:49:42.035Z,4.43
2022-11-12T04:52:44.198Z,4.45
2022-11-12T04:55:45.735Z,4.13
2022-11-12T04:58:47.277Z,4.30
2022-11-12T05:01:48.861Z,4.82
2022-11-12T05:04:50.467Z,4.60
2022-11-12T05:07:51.974Z,5.20
2022-11-12T05:10:53.585Z,4.57
2022-11-12T05:13:55.105Z,5.07
2022-11-12T05:16:56.714Z,4.30
2022-11-12T05:19:58.214Z,4.78
2022-11-12T05:23:06.804Z,4.93
2022-11-12T05:26:08.801Z,4.47
2022-11-12T05:29:10.342Z,4.45
2022-11-12T05:32:14.894Z,4.93
2022-11-12T05:35:16.583Z,4.82
2022-11-12T05:38:18.103Z,5.18
2022-11-12T05:41:20.254Z,5.38
2022-11-12T05:44:22.075Z,4.97
2022-11-12T05:47:23.621Z,5.88
2022-11-12T05:50:28.178Z,5.90
2022-11-12T05:53:36.231Z,5.22
2022-11-12T05:56:38.687Z,5.40
2022-11-12T05:59:40.210Z,5.57
2022-11-12T06:02:43.027Z,5.15
2022-11-12T06:05:44.756Z,5.93
2022-11-12T06:08:46.350Z,5.70
2022-11-12T06:11:47.887Z,5.13
2022-11-12T06:14:49.409Z,5.47
2022-11-12T06:17:51.000Z,5.10
2022-11-12T06:21:11.442Z,5.10
2022-11-12T06:24:13.085Z,5.93
2022-11-12T06:27:14.617Z,6.43
2022-11-12T06:30:21.658Z,5.20
2022-11-12T06:33:26.127Z,4.03
2022-11-12T06:36:27.657Z,6.88
2022-11-12T06:39:29.196Z,5.70
2022-11-12T06:42:30.928Z,5.80
2022-11-12T06:45:32.463Z,5.78
2022-11-12T06:48:34.045Z,5.18
2022-11-12T06:51:35.765Z,5.50
2022-11-12T06:54:37.342Z,5.28
2022-11-12T06:57:38.908Z,5.30
2022-11-12T07:00:40.489Z,4.75
2022-11-12T07:03:43.949Z,5.30
2022-11-12T07:06:45.606Z,5.00
2022-11-12T07:09:47.188Z,4.90
2022-11-12T07:12:53.197Z,4.80
2022-11-12T07:15:58.160Z,5.03
2022-11-12T07:18:59.758Z,4.68
2022-11-12T07:22:01.269Z,5.88
2022-11-12T07:25:03.040Z,5.07
2022-11-12T07:28:04.657Z,5.07
2022-11-12T07:31:09.709Z,4.97
2022-11-12T07:34:11.227Z,6.05
2022-11-12T07:37:12.872Z,6.00
2022-11-12T07:40:15.142Z,5.60
2022-11-12T07:43:16.684Z,6.78
2022-11-12T07:46:19.435Z,7.10
2022-11-12T07:49:21.036Z,6.30
2022-11-12T07:52:22.701Z,6.95
2022-11-12T07:55:24.266Z,6.68
2022-11-12T07:58:27.171Z,6.90
2022-11-12T08:01:36.694Z,7.88
2022-11-12T08:04:38.239Z,7.88
2022-11-12T08:07:39.855Z,6.45
2022-11-12T08:10:41.636Z,6.53
2022-11-12T08:13:43.319Z,6.40
2022-11-12T08:16:46.547Z,7.45
2022-11-12T08:19:48.167Z,7.28
2022-11-12T08:22:49.909Z,7.30
2022-11-12T08:25:51.506Z,12.25
2022-11-12T08:28:53.052Z,18.85
2022-11-12T08:31:54.617Z,21.90
2022-11-12T08:34:56.180Z,17.33
2022-11-12T08:38:02.527Z,21.98
2022-11-12T08:41:06.641Z,17.52
2022-11-12T08:44:08.974Z,14.38
2022-11-12T08:47:10.776Z,13.68
2022-11-12T08:50:12.460Z,12.35
2022-11-12T08:53:14.170Z,12.10
2022-11-12T08:56:15.997Z,9.77
2022-11-12T08:59:17.636Z,9.05
2022-11-12T09:02:19.251Z,5.30
2022-11-12T09:05:20.841Z,5.07
2022-11-12T09:08:25.287Z,4.95
2022-11-12T09:11:27.169Z,5.82
2022-11-12T09:14:29.938Z,6.43
2022-11-12T09:17:32.510Z,6.78
2022-11-12T09:20:34.359Z,6.65
2022-11-12T09:23:36.743Z,11.23
2022-11-12T09:26:38.247Z,9.80
2022-11-12T09:29:39.790Z,12.70
2022-11-12T09:32:41.411Z,12.98
2022-11-12T09:35:43.601Z,11.88
2022-11-12T09:38:45.219Z,11.98
2022-11-12T09:41:47.100Z,11.82
2022-11-12T09:44:57.222Z,10.93
2022-11-12T09:48:08.318Z,11.07
2022-11-12T09:51:21.604Z,10.13
2022-11-12T09:54:29.929Z,10.65
2022-11-12T09:57:33.446Z,11.15
2022-11-12T10:00:35.818Z,8.85
2022-11-12T10:03:46.637Z,9.02
2022-11-12T10:10:20.249Z,8.02
2022-11-12T10:13:59.586Z,7.22
2022-11-12T10:17:27.920Z,6.65
2022-11-12T10:20:38.962Z,5.13
2022-11-12T10:23:46.171Z,3.60
2022-11-12T10:26:52.139Z,3.30
2022-11-12T10:29:59.639Z,2.70
2022-11-12T10:33:01.183Z,2.38
2022-11-12T10:36:19.986Z,2.20
2022-11-12T10:39:41.989Z,2.55
2022-11-12T10:43:16.093Z,3.35
2022-11-12T10:46:26.700Z,9.57
2022-11-12T10:49:28.256Z,11.63
2022-11-12T10:52:29.910Z,11.13
2022-11-12T10:55:35.040Z,12.90
2022-11-12T10:58:36.612Z,13.43
2022-11-12T11:01:43.016Z,15.18
2022-11-12T11:04:47.041Z,13.63
2022-11-12T11:07:51.485Z,12.93
2022-11-12T11:11:14.628Z,13.15
2022-11-12T11:14:22.357Z,12.88
2022-11-12T11:17:23.902Z,12.95
2022-11-12T11:20:43.993Z,11.52
2022-11-12T11:24:14.411Z,12.25
2022-11-12T11:27:25.318Z,11.68
2022-11-12T11:30:27.211Z,10.48
2022-11-12T11:33:37.687Z,11.43
2022-11-12T11:36:53.764Z,11.23
2022-11-12T11:40:16.511Z,10.25
2022-11-12T11:43:34.068Z,10.55
2022-11-12T11:47:04.784Z,10.02
2022-11-12T11:50:17.099Z,10.48
2022-11-12T11:53:18.626Z,10.27
2022-11-12T11:56:28.303Z,10.40
2022-11-12T12:00:07.200Z,10.60
2022-11-12T12:03:19.601Z,9.70
2022-11-12T12:06:32.076Z,11.32
2022-11-12T12:09:47.862Z,11.18
2022-11-12T12:13:05.303Z,5.78
2022-11-12T12:16:15.460Z,9.70
2022-11-12T12:19:41.451Z,10.75
2022-11-12T12:22:59.056Z,4.72
2022-11-12T12:26:03.045Z,5.90
2022-11-12T12:29:13.710Z,3.50
2022-11-12T12:35:50.428Z,11.60
2022-11-12T12:38:59.436Z,13.43
2022-11-12T12:42:09.446Z,11.73
2022-11-12T12:45:38.134Z,10.88
2022-11-12T12:48:45.068Z,10.75
2022-11-12T12:51:50.338Z,8.02
2022-11-12T12:54:56.222Z,2.35
2022-11-12T12:58:00.923Z,2.40
2022-11-12T13:01:19.636Z,2.40
2022-11-12T13:04:53.002Z,2.30
2022-11-12T13:07:59.053Z,2.45
2022-11-12T13:11:00.642Z,1.95
2022-11-12T13:14:31.424Z,2.00
2022-11-12T13:17:47.796Z,1.80
2022-11-12T13:21:10.951Z,1.88
2022-11-12T13:24:14.153Z,2.15
2022-11-12T13:27:44.463Z,2.00
2022-11-12T13:30:45.971Z,2.72
2022-11-12T13:33:48.247Z,4.60
2022-11-12T13:36:58.278Z,3.20
2022-11-12T13:40:03.968Z,1.80
2022-11-12T13:43:40.335Z,2.45
2022-11-12T13:46:44.086Z,2.47
2022-11-12T13:49:47.302Z,1.92
2022-11-12T13:52:49.751Z,1.60
2022-11-12T13:55:53.448Z,2.00
2022-11-12T13:58:55.211Z,2.22
2022-11-12T14:01:56.843Z,2.00
2022-11-12T14:04:58.493Z,1.90
2022-11-12T14:08:11.918Z,1.85
2022-11-12T14:11:19.587Z,2.10
2022-11-12T14:14:47.308Z,2.40
2022-11-12T14:18:14.803Z,2.03
2022-11-12T14:21:17.982Z,2.00
2022-11-12T14:24:20.291Z,2.25
2022-11-12T14:27:34.013Z,2.75
2022-11-12T14:30:44.580Z,2.50
2022-11-12T14:36:49.077Z,2.00
2022-11-12T14:39:50.796Z,2.10
2022-11-12T14:42:53.013Z,1.90
2022-11-12T14:45:56.461Z,2.17
2022-11-12T14:49:12.207Z,2.42
2022-11-12T14:52:31.322Z,2.85
2022-11-12T14:55:36.292Z,2.63
2022-11-12T14:58:39.795Z,2.80
2022-11-12T15:05:27.339Z,2.63
2022-11-12T15:08:34.888Z,2.70
2022-11-12T15:11:42.470Z,3.00
2022-11-12T15:14:44.048Z,2.75
2022-11-12T15:17:45.635Z,2.90
2022-11-12T15:21:11.786Z,2.53
2022-11-12T15:24:43.679Z,2.83
2022-11-12T15:27:45.303Z,3.67
2022-11-12T15:31:02.465Z,4.43
2022-11-12T15:34:41.230Z,6.18
2022-11-12T15:37:43.324Z,5.03
2022-11-12T15:40:54.530Z,5.60
2022-11-12T15:43:59.461Z,8.48
2022-11-12T15:47:01.570Z,7.93
2022-11-12T15:50:15.844Z,9.48
2022-11-12T15:53:17.430Z,7.38
2022-11-12T15:56:22.135Z,9.20
2022-11-12T15:59:23.719Z,9.20
2022-11-12T16:02:25.856Z,9.13
2022-11-12T16:05:27.365Z,10.13
2022-11-12T16:08:28.890Z,9.52
2022-11-12T16:11:36.344Z,10.35
2022-11-12T16:14:39.176Z,11.05
2022-11-12T16:17:40.977Z,13.27
2022-11-12T16:20:42.614Z,12.88
2022-11-12T16:23:44.560Z,12.32
2022-11-12T16:26:46.198Z,12.40
2022-11-12T16:29:47.721Z,11.50
2022-11-12T16:32:49.362Z,10.95
2022-11-12T16:35:51.265Z,10.80
2022-11-12T16:38:52.881Z,12.18
2022-11-12T16:41:54.442Z,12.85
2022-11-12T16:44:56.021Z,12.88
2022-11-12T16:47:58.205Z,13.65
2022-11-12T16:51:00.748Z,12.88
2022-11-12T16:54:02.494Z,12.88
2022-11-12T16:57:04.176Z,13.55
2022-11-12T17:00:07.126Z,13.35
2022-11-12T17:03:12.659Z,13.25
2022-11-12T17:06:14.192Z,12.05
2022-11-12T17:09:16.534Z,13.13
2022-11-12T17:12:18.045Z,13.35
2022-11-12T17:15:19.926Z,13.00
2022-11-12T17:18:21.432Z,13.75
2022-11-12T17:21:23.714Z,13.50
2022-11-12T17:24:28.679Z,14.38
2022-11-12T17:27:30.803Z,13.80
2022-11-12T17:30:35.118Z,12.30
2022-11-12T17:33:49.477Z,13.38
2022-11-12T17:36:50.977Z,12.23
2022-11-12T17:39:53.613Z,13.25
2022-11-12T17:42:55.143Z,12.68
2022-11-12T17:45:57.452Z,13.25
2022-11-12T17:48:59.042Z,12.55
2022-11-12T17:52:03.239Z,12.43
2022-11-12T17:55:14.578Z,12.95
2022-11-12T17:58:16.565Z,13.15
2022-11-12T18:01:21.825Z,13.07
2022-11-12T18:04:40.896Z,11.93
2022-11-12T18:07:42.788Z,12.95
2022-11-12T18:10:45.486Z,13.57
2022-11-12T18:13:47.116Z,11.05
2022-11-12T18:16:49.175Z,12.35
2022-11-12T18:19:51.432Z,12.50
2022-11-12T18:22:52.980Z,11.88
2022-11-12T18:25:54.542Z,11.50
2022-11-12T18:28:57.964Z,12.05
2022-11-12T18:31:59.579Z,12.98
2022-11-12T18:35:01.155Z,12.60
2022-11-12T18:38:02.750Z,14.25
2022-11-12T18:41:08.181Z,13.55
2022-11-12T18:44:09.964Z,9.55
2022-11-12T18:47:11.708Z,9.18
2022-11-12T18:50:13.415Z,8.98
2022-11-12T18:53:14.979Z,9.02
2022-11-12T18:56:19.075Z,8.93
2022-11-12T18:59:21.826Z,9.13
2022-11-12T19:02:23.395Z,11.10
2022-11-12T19:05:25.121Z,9.55
2022-11-12T19:08:26.706Z,9.85
2022-11-12T19:11:28.279Z,10.45
2022-11-12T19:14:30.261Z,11.15
2022-11-12T19:17:31.874Z,12.02
2022-11-12T19:20:33.392Z,11.75
2022-11-12T19:23:35.526Z,11.32
2022-11-12T19:26:37.050Z,12.80
2022-11-12T19:29:38.574Z,13.75
2022-11-12T19:32:40.212Z,11.57
2022-11-12T19:35:41.925Z,13.38
2022-11-12T19:38:43.808Z,14.95
2022-11-12T19:41:45.317Z,15.07
2022-11-12T19:44:47.009Z,16.20
2022-11-12T19:47:50.666Z,16.88
2022-11-12T19:50:52.870Z,19.13
2022-11-12T19:53:54.515Z,19.85
2022-11-12T19:56:56.082Z,21.40
2022-11-12T19:59:57.607Z,24.73
2022-11-12T20:02:59.954Z,26.90
2022-11-12T20:06:03.782Z,26.60
2022-11-12T20:09:05.439Z,26.02
2022-11-12T20:12:07.254Z,26.40
2022-11-12T20:15:09.426Z,25.80
2022-11-12T20:18:10.968Z,26.08
2022-11-12T20:21:12.583Z,24.98
2022-11-12T20:24:14.097Z,27.88
2022-11-12T20:27:17.428Z,28.48
2022-11-12T20:30:18.988Z,26.75
2022-11-12T20:33:20.547Z,27.63
2022-11-12T20:36:23.169Z,28.65
2022-11-12T20:39:24.715Z,30.42
2022-11-12T20:42:26.248Z,29.13
2022-11-12T20:45:27.891Z,28.35
2022-11-12T20:48:29.879Z,33.85
2022-11-12T20:51:33.208Z,32.92
2022-11-12T20:54:34.788Z,37.97
2022-11-12T20:57:36.393Z,37.15
2022-11-12T21:00:38.885Z,36.45
2022-11-12T21:03:40.740Z,47.47
2022-11-12T21:06:42.320Z,44.47
2022-11-12T21:09:44.722Z,44.08
2022-11-12T21:12:46.261Z,31.10
2022-11-12T21:15:48.113Z,30.00
2022-11-12T21:18:49.640Z,28.23
2022-11-12T21:21:51.180Z,27.25
2022-11-12T21:24:52.699Z,25.48
2022-11-12T21:27:54.339Z,26.35
2022-11-12T21:31:02.743Z,27.10
2022-11-12T21:34:04.824Z,27.17
2022-11-12T21:37:06.372Z,25.33
2022-11-12T21:40:08.664Z,26.38
2022-11-12T21:43:10.201Z,25.40
2022-11-12T21:46:25.130Z,26.30
2022-11-12T21:49:26.714Z,27.02
2022-11-12T21:52:28.811Z,26.67
2022-11-12T21:55:30.322Z,25.25
2022-11-12T21:58:31.955Z,28.60
2022-11-12T22:01:34.754Z,30.05
2022-11-12T22:04:36.417Z,32.90
2022-11-12T22:07:37.924Z,30.05
2022-11-12T22:10:39.470Z,34.72
2022-11-12T22:13:42.260Z,32.45
2022-11-12T22:16:43.995Z,32.92
2022-11-12T22:19:45.520Z,35.03
2022-11-12T22:22:47.035Z,32.15
2022-11-12T22:25:50.531Z,36.42
2022-11-12T22:28:56.872Z,36.80
2022-11-12T22:31:58.431Z,37.75
2022-11-12T22:35:00.026Z,35.53
2022-11-12T22:38:01.581Z,36.83
2022-11-12T22:41:05.457Z,38.33
2022-11-12T22:44:07.089Z,39.88
2022-11-12T22:47:08.589Z,40.90
2022-11-12T22:50:10.264Z,37.80
2022-11-12T22:53:11.775Z,38.80
2022-11-12T22:56:15.918Z,39.20
2022-11-12T22:59:17.422Z,37.35
2022-11-12T23:02:18.990Z,37.05
2022-11-12T23:05:20.505Z,35.10
2022-11-12T23:08:22.057Z,34.50
2022-11-12T23:11:33.013Z,35.50
2022-11-12T23:14:39.904Z,37.25
2022-11-12T23:17:41.420Z,34.45
2022-11-12T23:20:46.057Z,31.92
2022-11-12T23:23:47.668Z,35.55
2022-11-12T23:26:49.251Z,34.20
2022-11-12T23:29:53.203Z,37.05
2022-11-12T23:32:54.811Z,55.35
2022-11-12T23:36:15.093Z,39.55
2022-11-12T23:39:16.657Z,44.05
2022-11-12T23:42:18.268Z,41.38
2022-11-12T23:45:19.875Z,40.60
2022-11-12T23:48:22.209Z,41.78
2022-11-12T23:51:23.800Z,37.80
2022-11-12T23:54:25.406Z,39.13
2022-11-12T23:57:26.984Z,36.35
